createdAt,value
2023-03-01T00:01:23.659Z,100987.03
2023-03-01T00:03:50.784Z,100975.16
2023-03-01T00:06:18.300Z,100971.69
2023-03-01T00:08:45.313Z,100969.91
2023-03-01T00:11:27.646Z,100964.75
2023-03-01T00:13:58.930Z,100972.13
2023-03-01T00:16:40.413Z,100965.41
2023-03-01T00:19:12.152Z,100973.59
2023-03-01T00:21:39.124Z,100965.97
2023-03-01T00:24:06.299Z,100975.28
2023-03-01T00:26:33.532Z,100982.78
2023-03-01T00:29:01.413Z,100980.34
2023-03-01T00:31:32.174Z,100980.34
2023-03-01T00:34:02.465Z,100992.69
2023-03-01T00:36:34.550Z,100985.81
2023-03-01T00:39:02.469Z,100985.72
2023-03-01T00:41:29.559Z,100984.78
2023-03-01T00:43:56.873Z,100986.38
2023-03-01T00:46:27.152Z,100987.22
2023-03-01T00:48:54.716Z,100987.91
2023-03-01T00:51:27.763Z,100979.56
2023-03-01T00:54:01.204Z,100986.13
2023-03-01T00:56:29.612Z,100975.19
2023-03-01T00:58:56.879Z,100974.09
2023-03-01T01:01:30.615Z,100972.38
2023-03-01T01:04:00.217Z,100977.25
2023-03-01T01:06:45.448Z,100974.75
2023-03-01T01:09:18.445Z,100973.00
2023-03-01T01:11:51.929Z,100969.75
2023-03-01T01:14:19.926Z,100963.16
2023-03-01T01:16:46.983Z,100966.53
2023-03-01T01:19:14.346Z,100966.59
2023-03-01T01:21:44.027Z,100962.53
2023-03-01T01:24:11.196Z,100960.97
2023-03-01T01:26:38.637Z,100959.31
2023-03-01T01:29:06.695Z,100950.19
2023-03-01T01:31:35.611Z,100950.19
2023-03-01T01:34:06.500Z,100946.03
2023-03-01T01:36:34.918Z,100950.19
2023-03-01T01:39:03.046Z,100945.25
2023-03-01T01:41:31.072Z,100942.75
2023-03-01T01:44:26.994Z,100939.47
2023-03-01T01:47:21.460Z,100928.47
2023-03-01T01:49:57.052Z,100926.59
2023-03-01T01:52:30.042Z,100925.63
2023-03-01T01:55:11.321Z,100930.66
2023-03-01T01:57:48.146Z,100917.94
2023-03-01T02:00:19.708Z,100911.13
2023-03-01T02:02:52.980Z,100915.19
2023-03-01T02:05:34.119Z,100900.88
2023-03-01T02:08:01.657Z,100905.69
2023-03-01T02:10:30.144Z,100898.00
2023-03-01T02:12:57.580Z,100889.53
2023-03-01T02:15:25.159Z,100890.13
2023-03-01T02:17:53.097Z,100891.63
2023-03-01T02:21:09.396Z,100893.88
2023-03-01T02:23:37.495Z,100891.69
2023-03-01T02:26:42.432Z,100888.97
2023-03-01T02:29:09.538Z,100878.59
2023-03-01T02:31:45.921Z,100876.84
2023-03-01T02:34:26.167Z,100880.84
2023-03-01T02:37:13.515Z,100873.06
2023-03-01T02:39:45.414Z,100877.00
2023-03-01T02:42:20.711Z,100889.50
2023-03-01T02:44:47.432Z,100875.91
2023-03-01T02:47:14.195Z,100877.56
2023-03-01T02:49:40.914Z,100882.56
2023-03-01T02:52:29.667Z,100885.66
2023-03-01T02:55:13.822Z,100877.88
2023-03-01T02:57:44.534Z,100886.06
2023-03-01T03:00:21.985Z,100890.97
2023-03-01T03:02:51.886Z,100891.75
2023-03-01T03:05:28.925Z,100890.63
2023-03-01T03:07:56.901Z,100883.00
2023-03-01T03:10:34.463Z,100884.63
2023-03-01T03:13:05.758Z,100895.28
2023-03-01T03:15:36.889Z,100886.97
2023-03-01T03:18:08.563Z,100881.91
2023-03-01T03:20:37.272Z,100880.16
2023-03-01T03:23:04.384Z,100875.25
2023-03-01T03:25:31.455Z,100876.09
2023-03-01T03:27:59.014Z,100868.59
2023-03-01T03:30:30.358Z,100854.44
2023-03-01T03:32:59.013Z,100870.34
2023-03-01T03:35:38.841Z,100858.63
2023-03-01T03:38:16.318Z,100860.28
2023-03-01T03:40:50.809Z,100851.13
2023-03-01T03:43:23.827Z,100867.00
2023-03-01T03:45:52.147Z,100861.13
2023-03-01T03:48:19.906Z,100852.00
2023-03-01T03:50:56.536Z,100851.13
2023-03-01T03:53:26.413Z,100846.94
2023-03-01T03:55:54.089Z,100853.56
2023-03-01T03:58:24.607Z,100851.81
2023-03-01T04:00:56.800Z,100856.53
2023-03-01T04:03:26.892Z,100862.22
2023-03-01T04:05:54.399Z,100847.84
2023-03-01T04:08:23.972Z,100865.13
2023-03-01T04:10:57.288Z,100864.84
2023-03-01T04:13:26.173Z,100863.81
2023-03-01T04:15:55.246Z,100837.06
2023-03-01T04:18:25.582Z,100831.91
2023-03-01T04:20:56.149Z,100836.72
2023-03-01T04:23:23.182Z,100837.47
2023-03-01T04:25:58.282Z,100834.84
2023-03-01T04:28:35.189Z,100828.88
2023-03-01T04:31:14.042Z,100824.69
2023-03-01T04:33:52.593Z,100823.75
2023-03-01T04:36:23.894Z,100821.19
2023-03-01T04:38:51.614Z,100816.03
2023-03-01T04:41:21.461Z,100821.09
2023-03-01T04:43:49.557Z,100830.88
2023-03-01T04:46:20.102Z,100831.78
2023-03-01T04:48:48.247Z,100830.81
2023-03-01T04:51:15.578Z,100829.97
2023-03-01T04:53:44.015Z,100834.88
2023-03-01T04:56:11.116Z,100835.66
2023-03-01T04:58:38.216Z,100827.22
2023-03-01T05:01:18.060Z,100823.09
2023-03-01T05:03:48.040Z,100818.13
2023-03-01T05:06:16.314Z,100822.22
2023-03-01T05:08:44.524Z,100815.50
2023-03-01T05:11:12.900Z,100814.66
2023-03-01T05:13:40.609Z,100818.81
2023-03-01T05:16:13.181Z,100811.41
2023-03-01T05:18:41.678Z,100818.00
2023-03-01T05:21:13.510Z,100810.44
2023-03-01T05:23:40.524Z,100807.03
2023-03-01T05:26:16.210Z,100806.34
2023-03-01T05:28:52.912Z,100810.44
2023-03-01T05:31:19.907Z,100817.16
2023-03-01T05:33:46.794Z,100818.81
2023-03-01T05:36:13.560Z,100808.13
2023-03-01T05:38:40.327Z,100801.41
2023-03-01T05:41:16.645Z,100810.72
2023-03-01T05:43:45.836Z,100807.25
2023-03-01T05:46:14.274Z,100814.75
2023-03-01T05:48:41.655Z,100814.66
2023-03-01T05:51:08.980Z,100809.66
2023-03-01T05:53:35.898Z,100817.06
2023-03-01T05:56:08.046Z,100815.13
2023-03-01T05:58:34.942Z,100810.72
2023-03-01T06:01:01.760Z,100810.56
2023-03-01T06:03:28.618Z,100820.53
2023-03-01T06:05:59.580Z,100818.81
2023-03-01T06:08:28.061Z,100822.88
2023-03-01T06:10:54.938Z,100820.19
2023-03-01T06:13:21.769Z,100820.03
2023-03-01T06:15:48.580Z,100813.25
2023-03-01T06:18:15.357Z,100813.25
2023-03-01T06:20:42.249Z,100815.66
2023-03-01T06:23:09.871Z,100811.44
2023-03-01T06:25:38.522Z,100813.16
2023-03-01T06:28:05.468Z,100806.28
2023-03-01T06:30:32.943Z,100814.53
2023-03-01T06:33:02.325Z,100805.34
2023-03-01T06:35:33.336Z,100804.56
2023-03-01T06:38:02.990Z,100805.41
2023-03-01T06:40:31.993Z,100803.94
2023-03-01T06:42:59.678Z,100812.38
2023-03-01T06:45:26.416Z,100796.28
2023-03-01T06:47:53.180Z,100800.31
2023-03-01T06:50:20.299Z,100801.56
2023-03-01T06:55:14.242Z,100803.34
2023-03-01T06:57:41.424Z,99887.78
2023-03-01T07:00:09.761Z,100802.44
2023-03-01T07:02:36.559Z,100796.81
2023-03-01T07:05:03.494Z,100807.19
2023-03-01T07:07:30.323Z,100802.53
2023-03-01T07:09:57.101Z,100799.25
2023-03-01T07:12:24.164Z,100801.28
2023-03-01T07:14:51.401Z,100794.63
2023-03-01T07:17:18.150Z,100801.81
2023-03-01T07:19:45.857Z,100800.25
2023-03-01T07:22:12.616Z,100796.94
2023-03-01T07:24:39.348Z,100794.44
2023-03-01T07:27:06.106Z,100789.31
2023-03-01T07:29:32.869Z,100790.91
2023-03-01T07:31:59.816Z,100784.00
2023-03-01T07:34:26.798Z,100782.25
2023-03-01T07:36:53.643Z,100775.41
2023-03-01T07:39:20.418Z,100773.66
2023-03-01T07:41:47.181Z,100773.72
2023-03-01T07:44:13.978Z,100760.34
2023-03-01T07:46:40.708Z,100770.59
2023-03-01T07:49:07.542Z,100764.59
2023-03-01T07:51:34.527Z,100772.75
2023-03-01T07:54:01.330Z,100773.03
2023-03-01T07:56:28.194Z,100770.78
2023-03-01T07:58:55.008Z,100772.72
2023-03-01T08:01:23.118Z,100771.31
2023-03-01T08:03:49.909Z,100766.38
2023-03-01T08:06:18.736Z,100760.53
2023-03-01T08:08:46.171Z,100762.28
2023-03-01T08:11:15.817Z,100760.63
2023-03-01T08:13:44.134Z,100756.31
2023-03-01T08:16:16.582Z,100755.41
2023-03-01T08:18:44.297Z,100750.22
2023-03-01T08:21:18.084Z,100749.41
2023-03-01T08:23:45.748Z,100752.84
2023-03-01T08:26:19.540Z,100751.28
2023-03-01T08:28:48.094Z,100758.97
2023-03-01T08:31:29.536Z,100751.41
2023-03-01T08:34:00.753Z,100748.88
2023-03-01T08:36:31.748Z,100759.91
2023-03-01T08:38:59.071Z,100753.94
2023-03-01T08:41:26.657Z,100756.47
2023-03-01T08:43:59.297Z,100763.25
2023-03-01T08:46:35.199Z,100763.22
2023-03-01T08:49:05.362Z,100756.31
2023-03-01T08:51:37.376Z,100744.28
2023-03-01T08:54:12.255Z,100739.91
2023-03-01T08:56:39.630Z,100741.41
2023-03-01T08:59:06.528Z,100739.47
2023-03-01T09:01:33.508Z,100742.59
2023-03-01T09:04:00.957Z,100743.31
2023-03-01T09:06:27.834Z,100738.13
2023-03-01T09:08:55.683Z,100734.59
2023-03-01T09:11:23.004Z,100730.19
2023-03-01T09:13:51.027Z,100725.78
2023-03-01T09:16:21.378Z,100734.03
2023-03-01T09:18:55.582Z,100737.22
2023-03-01T09:21:39.197Z,100730.22
2023-03-01T09:24:13.417Z,100739.41
2023-03-01T09:26:40.175Z,100736.03
2023-03-01T09:29:06.899Z,100733.53
2023-03-01T09:31:33.613Z,100732.72
2023-03-01T09:34:00.324Z,100731.25
2023-03-01T09:36:27.143Z,100735.03
2023-03-01T09:38:54.312Z,100740.59
2023-03-01T09:41:45.973Z,100730.78
2023-03-01T09:44:49.953Z,100720.88
2023-03-01T09:47:28.979Z,100717.69
2023-03-01T09:50:18.552Z,100708.44
2023-03-01T09:53:08.194Z,100711.84
2023-03-01T09:55:43.987Z,100714.38
2023-03-01T09:58:28.578Z,100706.72
2023-03-01T10:01:03.195Z,100705.91
2023-03-01T10:03:48.356Z,100698.22
2023-03-01T10:06:34.381Z,100701.59
2023-03-01T10:09:17.832Z,100704.13
2023-03-01T10:11:53.535Z,100702.41
2023-03-01T10:14:36.324Z,100702.28
2023-03-01T10:17:29.769Z,100698.00
2023-03-01T10:20:11.517Z,100695.44
2023-03-01T10:22:38.329Z,100696.16
2023-03-01T10:25:05.464Z,100695.09
2023-03-01T10:27:55.799Z,100697.50
2023-03-01T10:30:40.193Z,100694.94
2023-03-01T10:33:27.539Z,100689.00
2023-03-01T10:35:54.542Z,100675.38
2023-03-01T10:38:22.358Z,100677.13
2023-03-01T10:41:07.636Z,100676.44
2023-03-01T10:43:52.518Z,100671.50
2023-03-01T10:46:27.920Z,100675.84
2023-03-01T10:49:20.727Z,100680.25
2023-03-01T10:51:51.934Z,100666.75
2023-03-01T10:54:30.640Z,100657.59
2023-03-01T10:57:04.726Z,100660.28
2023-03-01T10:59:39.610Z,100671.41
2023-03-01T11:02:30.908Z,100659.59
2023-03-01T11:05:17.030Z,100667.28
2023-03-01T11:07:55.939Z,100653.75
2023-03-01T11:10:30.129Z,100651.13
2023-03-01T11:13:20.731Z,100642.66
2023-03-01T11:16:12.929Z,100646.84
2023-03-01T11:18:48.265Z,100636.66
2023-03-01T11:21:17.226Z,100640.88
2023-03-01T11:23:47.750Z,100637.47
2023-03-01T11:26:16.698Z,100640.00
2023-03-01T11:28:48.030Z,100624.75
2023-03-01T11:31:17.809Z,100621.34
2023-03-01T11:33:57.526Z,100616.28
2023-03-01T11:36:46.959Z,100612.84
2023-03-01T11:39:38.674Z,100611.94
2023-03-01T11:42:30.552Z,100614.44
2023-03-01T11:45:02.833Z,100617.91
2023-03-01T11:48:15.699Z,100616.25
2023-03-01T11:50:49.121Z,100607.78
2023-03-01T11:54:05.785Z,100606.13
2023-03-01T11:56:41.541Z,100590.03
2023-03-01T11:59:57.116Z,100587.47
2023-03-01T12:03:03.964Z,100579.81
2023-03-01T12:06:05.675Z,100582.41
2023-03-01T12:08:39.106Z,100568.81
2023-03-01T12:11:54.351Z,100563.72
2023-03-01T12:14:50.707Z,100565.41
2023-03-01T12:17:40.911Z,100566.28
2023-03-01T12:20:18.952Z,100570.50
2023-03-01T12:23:30.986Z,100562.88
2023-03-01T12:26:29.861Z,100562.03
2023-03-01T12:29:50.098Z,100565.41
2023-03-01T12:32:22.725Z,100564.50
2023-03-01T12:35:34.550Z,100559.38
2023-03-01T12:38:16.975Z,100561.81
2023-03-01T12:40:52.742Z,100562.59
2023-03-01T12:43:40.613Z,100554.03
2023-03-01T12:46:41.418Z,100551.38
2023-03-01T12:49:16.224Z,100555.50
2023-03-01T12:51:57.640Z,100548.63
2023-03-01T12:54:36.351Z,100536.72
2023-03-01T12:57:27.420Z,100536.66
2023-03-01T13:00:11.069Z,100528.13
2023-03-01T13:02:54.314Z,100525.41
2023-03-01T13:06:13.656Z,100522.69
2023-03-01T13:08:48.521Z,100529.31
2023-03-01T13:11:25.117Z,100517.41
2023-03-01T13:13:52.660Z,100508.91
2023-03-01T13:16:41.217Z,100515.63
2023-03-01T13:19:17.667Z,100513.00
2023-03-01T13:21:46.397Z,100507.03
2023-03-01T13:24:41.785Z,100512.91
2023-03-01T13:27:08.484Z,100506.09
2023-03-01T13:30:04.223Z,100507.75
2023-03-01T13:32:45.158Z,100508.50
2023-03-01T13:35:21.038Z,100499.94
2023-03-01T13:37:48.109Z,100495.66
2023-03-01T13:40:19.389Z,100488.91
2023-03-01T13:43:05.688Z,100489.69
2023-03-01T13:45:44.214Z,100494.72
2023-03-01T13:48:28.302Z,100492.13
2023-03-01T13:51:02.939Z,100492.06
2023-03-01T13:53:36.567Z,100491.09
2023-03-01T13:56:26.683Z,100488.50
2023-03-01T13:59:13.947Z,100485.81
2023-03-01T14:01:43.352Z,100490.84
2023-03-01T14:04:27.878Z,100482.38
2023-03-01T14:07:19.123Z,100483.97
2023-03-01T14:09:53.430Z,100483.94
2023-03-01T14:12:51.419Z,100487.28
2023-03-01T14:15:36.974Z,100484.66
2023-03-01T14:18:16.787Z,100479.56
2023-03-01T14:20:52.258Z,100478.69
2023-03-01T14:23:24.871Z,100473.59
2023-03-01T14:25:58.618Z,100472.72
2023-03-01T14:28:34.730Z,100465.97
2023-03-01T14:31:02.825Z,100461.72
2023-03-01T14:33:35.194Z,100458.31
2023-03-01T14:36:09.965Z,100448.97
2023-03-01T14:38:45.963Z,100443.78
2023-03-01T14:41:23.327Z,100439.44
2023-03-01T14:44:00.717Z,100432.59
2023-03-01T14:46:37.489Z,100431.69
2023-03-01T14:49:14.740Z,100423.19
2023-03-01T14:51:50.768Z,100419.78
2023-03-01T14:54:49.570Z,100418.97
2023-03-01T14:57:25.097Z,100413.88
2023-03-01T15:00:01.318Z,100409.66
2023-03-01T15:02:31.045Z,100405.41
2023-03-01T15:05:02.513Z,100407.09
2023-03-01T15:07:34.958Z,100409.59
2023-03-01T15:10:04.850Z,100407.88
2023-03-01T15:12:41.067Z,100413.72
2023-03-01T15:15:29.409Z,100401.00
2023-03-01T15:18:00.295Z,100402.63
2023-03-01T15:20:31.486Z,100408.53
2023-03-01T15:23:00.989Z,100397.56
2023-03-01T15:25:30.632Z,100396.75
2023-03-01T15:28:01.390Z,100389.22
2023-03-01T15:30:38.130Z,100395.13
2023-03-01T15:33:37.600Z,100391.75
2023-03-01T15:36:46.708Z,100396.72
2023-03-01T15:39:53.535Z,100397.44
2023-03-01T15:42:29.331Z,100385.59
2023-03-01T15:45:17.715Z,100383.84
2023-03-01T15:48:02.873Z,100383.00
2023-03-01T15:50:34.260Z,100378.72
2023-03-01T15:53:07.366Z,100374.41
2023-03-01T15:55:34.391Z,100375.25
2023-03-01T15:58:17.959Z,100374.38
2023-03-01T16:00:59.804Z,100365.97
2023-03-01T16:03:28.203Z,100360.00
2023-03-01T16:05:56.129Z,100367.47
2023-03-01T16:08:22.894Z,100363.22
2023-03-01T16:10:52.032Z,100374.19
2023-03-01T16:13:19.110Z,100367.38
2023-03-01T16:15:46.104Z,100367.38
2023-03-01T16:18:13.156Z,100359.75
2023-03-01T16:20:40.274Z,100366.47
2023-03-01T16:23:11.520Z,100359.63
2023-03-01T16:25:38.823Z,100362.97
2023-03-01T16:28:09.881Z,100362.91
2023-03-01T16:30:40.304Z,100363.66
2023-03-01T16:33:23.943Z,100366.16
2023-03-01T16:35:52.155Z,100362.72
2023-03-01T16:38:19.036Z,100368.56
2023-03-01T16:40:51.521Z,100360.06
2023-03-01T16:43:18.394Z,100361.63
2023-03-01T16:45:47.900Z,100362.34
2023-03-01T16:48:15.856Z,100360.53
2023-03-01T16:50:42.598Z,100365.44
2023-03-01T16:53:09.600Z,100362.81
2023-03-01T16:55:36.377Z,100359.34
2023-03-01T16:58:03.541Z,100361.75
2023-03-01T17:00:30.484Z,100357.44
2023-03-01T17:02:57.359Z,100370.75
2023-03-01T17:05:25.502Z,100372.31
2023-03-01T17:07:52.512Z,100375.56
2023-03-01T17:10:19.397Z,100366.13
2023-03-01T17:12:50.910Z,100375.25
2023-03-01T17:15:18.088Z,100366.63
2023-03-01T17:17:44.932Z,100365.56
2023-03-01T17:20:12.412Z,100367.16
2023-03-01T17:22:39.157Z,100380.50
2023-03-01T17:25:10.363Z,100371.97
2023-03-01T17:27:39.511Z,100374.44
2023-03-01T17:30:09.046Z,100380.22
2023-03-01T17:32:36.124Z,100377.59
2023-03-01T17:35:03.278Z,100382.84
2023-03-01T17:37:30.038Z,100378.56
2023-03-01T17:39:56.792Z,100387.38
2023-03-01T17:42:23.653Z,100382.84
2023-03-01T17:44:50.448Z,100390.16
2023-03-01T17:47:17.266Z,100389.09
2023-03-01T17:49:44.071Z,100388.81
2023-03-01T17:52:10.869Z,100391.94
2023-03-01T17:54:37.581Z,100389.25
2023-03-01T17:57:04.404Z,100383.22
2023-03-01T17:59:33.433Z,100381.34
2023-03-01T18:02:01.594Z,100381.19
2023-03-01T18:04:29.300Z,100383.59
2023-03-01T18:06:56.102Z,100380.97
2023-03-01T18:09:22.943Z,100379.16
2023-03-01T18:11:49.662Z,100387.44
2023-03-01T18:14:16.416Z,100370.50
2023-03-01T18:16:43.247Z,100379.63
2023-03-01T18:19:12.062Z,100371.06
2023-03-01T18:21:38.998Z,100377.59
2023-03-01T18:24:06.365Z,100383.28
2023-03-01T18:26:33.570Z,100384.78
2023-03-01T18:29:01.458Z,100379.69
2023-03-01T18:31:33.157Z,100380.28
2023-03-01T18:34:01.171Z,100378.44
2023-03-01T18:36:32.465Z,100370.72
2023-03-01T18:39:01.278Z,100368.91
2023-03-01T18:41:29.560Z,100374.59
2023-03-01T18:43:57.467Z,100371.91
2023-03-01T18:46:25.086Z,100370.13
2023-03-01T18:48:53.850Z,100374.25
2023-03-01T18:51:25.392Z,100370.03
2023-03-01T18:53:52.551Z,100370.91
2023-03-01T18:56:19.746Z,100364.16
2023-03-01T18:58:46.477Z,100368.41
2023-03-01T19:01:23.316Z,100359.28
2023-03-01T19:03:51.091Z,100362.59
2023-03-01T19:06:19.011Z,100363.41
2023-03-01T19:08:46.805Z,100359.19
2023-03-01T19:11:17.665Z,100363.28
2023-03-01T19:13:46.762Z,100363.16
2023-03-01T19:16:21.515Z,100370.63
2023-03-01T19:18:51.266Z,100374.66
2023-03-01T19:21:21.333Z,100367.81
2023-03-01T19:23:49.012Z,100367.66
2023-03-01T19:26:19.501Z,100365.09
2023-03-01T19:28:47.472Z,100370.94
2023-03-01T19:31:28.440Z,100366.66
2023-03-01T19:34:09.903Z,100369.94
2023-03-01T19:36:42.549Z,100362.31
2023-03-01T19:39:13.369Z,100368.09
2023-03-01T19:41:40.740Z,100369.69
2023-03-01T19:44:08.597Z,100370.50
2023-03-01T19:46:36.399Z,100366.22
2023-03-01T19:49:04.415Z,100359.41
2023-03-01T19:51:38.588Z,100356.84
2023-03-01T19:54:06.937Z,100358.50
2023-03-01T19:56:34.853Z,100359.34
2023-03-01T19:59:04.260Z,100349.28
2023-03-01T20:01:32.903Z,100357.66
2023-03-01T20:04:04.134Z,100356.84
2023-03-01T20:06:31.567Z,100355.25
2023-03-01T20:08:59.599Z,100343.50
2023-03-01T20:11:29.080Z,100347.69
2023-03-01T20:13:57.310Z,100342.59
2023-03-01T20:16:26.652Z,100334.19
2023-03-01T20:18:54.311Z,100328.25
2023-03-01T20:21:24.981Z,100330.72
2023-03-01T20:23:53.220Z,100330.63
2023-03-01T20:26:23.111Z,100333.09
2023-03-01T20:28:53.764Z,100332.16
2023-03-01T20:31:23.102Z,100334.50
2023-03-01T20:33:50.018Z,100341.94
2023-03-01T20:36:16.766Z,100346.06
2023-03-01T20:38:43.485Z,100353.53
2023-03-01T20:41:13.249Z,100356.75
2023-03-01T20:43:42.391Z,100351.66
2023-03-01T20:46:13.104Z,100349.75
2023-03-01T20:48:43.193Z,100356.25
2023-03-01T20:51:12.167Z,100350.28
2023-03-01T20:53:40.397Z,100352.69
2023-03-01T20:56:11.870Z,100360.19
2023-03-01T20:58:39.304Z,100355.91
2023-03-01T21:01:08.045Z,100362.59
2023-03-01T21:03:36.120Z,100360.09
2023-03-01T21:06:06.113Z,100359.34
2023-03-01T21:08:34.800Z,100355.97
2023-03-01T21:11:02.965Z,100365.28
2023-03-01T21:13:32.499Z,100350.19
2023-03-01T21:16:07.536Z,100361.91
2023-03-01T21:18:36.832Z,100355.13
2023-03-01T21:21:14.640Z,100356.75
2023-03-01T21:23:43.191Z,100349.16
2023-03-01T21:26:19.180Z,100356.63
2023-03-01T21:28:46.813Z,100354.91
2023-03-01T21:31:24.088Z,100352.44
2023-03-01T21:33:57.041Z,100352.44
2023-03-01T21:36:25.863Z,100344.88
2023-03-01T21:38:54.316Z,100352.44
2023-03-01T21:41:35.635Z,100351.63
2023-03-01T21:44:04.909Z,100356.47
2023-03-01T21:46:36.797Z,100349.09
2023-03-01T21:49:05.286Z,100342.47
2023-03-01T21:51:32.820Z,100339.19
2023-03-01T21:54:01.297Z,100340.97
2023-03-01T21:56:34.220Z,100341.03
2023-03-01T21:59:01.865Z,100339.31
2023-03-01T22:01:29.079Z,100346.06
2023-03-01T22:03:58.144Z,100345.19
2023-03-01T22:06:34.152Z,100341.84
2023-03-01T22:09:08.781Z,100348.44
2023-03-01T22:11:39.797Z,100340.81
2023-03-01T22:14:07.581Z,100337.41
2023-03-01T22:16:37.759Z,100339.88
2023-03-01T22:19:07.008Z,100339.75
2023-03-01T22:21:35.619Z,100337.19
2023-03-01T22:24:03.956Z,100340.50
2023-03-01T22:26:35.500Z,100340.50
2023-03-01T22:29:07.565Z,100333.81
2023-03-01T22:31:34.617Z,100338.88
2023-03-01T22:34:02.890Z,100329.72
2023-03-01T22:36:30.648Z,100330.63
2023-03-01T22:39:01.959Z,100325.66
2023-03-01T22:41:41.530Z,100333.19
2023-03-01T22:44:09.226Z,100326.38
2023-03-01T22:46:36.022Z,100329.84
2023-03-01T22:49:05.023Z,100331.59
2023-03-01T22:51:36.414Z,100326.66
2023-03-01T22:54:03.878Z,100332.53
2023-03-01T22:56:35.408Z,100323.31
2023-03-01T22:59:08.482Z,100331.69
2023-03-01T23:01:35.774Z,100336.66
2023-03-01T23:04:02.894Z,100327.38
2023-03-01T23:06:31.133Z,100327.38
2023-03-01T23:09:01.791Z,100320.59
2023-03-01T23:11:29.760Z,100326.47
2023-03-01T23:13:58.677Z,100324.78
2023-03-01T23:16:26.480Z,100322.19
2023-03-01T23:18:58.280Z,100319.63
2023-03-01T23:21:25.176Z,100326.25
2023-03-01T23:23:53.938Z,100325.31
2023-03-01T23:26:22.167Z,100319.47
2023-03-01T23:28:50.799Z,100320.25
2023-03-01T23:31:18.711Z,100324.44
2023-03-01T23:33:47.341Z,100326.16
2023-03-01T23:36:27.392Z,100325.19
2023-03-01T23:39:03.037Z,100321.72
2023-03-01T23:41:32.596Z,100321.72
2023-03-01T23:44:02.238Z,100325.91
2023-03-01T23:46:34.539Z,100330.00
2023-03-01T23:49:02.330Z,100336.69
2023-03-01T23:51:29.170Z,100329.84
2023-03-01T23:54:01.604Z,100325.50
2023-03-01T23:56:32.229Z,100333.81
2023-03-01T23:59:03.110Z,100329.41
